Terminal Aerodrome Forecast
Issued by NWS Indianapolis, IN

Current Version | Previous Version | Text Only | Print | Product List | Glossary On
Versions: 1 2 3 4 5 6 7 8 9 10 11 12 13 14 15 16 17 18 19 20 21 22 23 24 25 26
839
FTUS43 KIND 220520
TAFIND
TAF
KIND 220520Z 2206/2312 20006KT P6SM BKN150
     FM221000 22005KT P6SM VCTS BKN100CB
     FM221500 23007KT P6SM -SHRA VCTS BKN090CB
     FM221800 27008KT P6SM OVC050
     FM230000 31007KT P6SM BKN060
     FM230200 35005KT P6SM SCT110=

USA.gov is the U.S. government's official web portal to all federal, state and local government web resources and services.